sensor_id;sensor_type;location;lat;lon;timestamp;pressure;altitude;pressure_sealevel;temperature
45976;BMP280;31696;42.668;23.322;2023-07-30T00:00:25;94537.88;;;21.12
45976;BMP280;31696;42.668;23.322;2023-07-30T00:02:25;94534.97;;;21.05
45976;BMP280;31696;42.668;23.322;2023-07-30T00:04:26;94527.91;;;21.10
45976;BMP280;31696;42.668;23.322;2023-07-30T00:06:26;94538.75;;;21.00
45976;BMP280;31696;42.668;23.322;2023-07-30T00:08:27;94529.56;;;21.01
45976;BMP280;31696;42.668;23.322;2023-07-30T00:10:27;94534.34;;;20.89
45976;BMP280;31696;42.668;23.322;2023-07-30T00:12:27;94548.03;;;21.01
45976;BMP280;31696;42.668;23.322;2023-07-30T00:14:28;94527.88;;;20.92
45976;BMP280;31696;42.668;23.322;2023-07-30T00:16:28;94528.72;;;20.97
45976;BMP280;31696;42.668;23.322;2023-07-30T00:18:29;94523.09;;;20.89
45976;BMP280;31696;42.668;23.322;2023-07-30T00:20:29;94528.06;;;20.81
45976;BMP280;31696;42.668;23.322;2023-07-30T00:22:29;94523.78;;;20.89
45976;BMP280;31696;42.668;23.322;2023-07-30T00:24:30;94525.16;;;20.90
45976;BMP280;31696;42.668;23.322;2023-07-30T00:26:30;94525.06;;;20.88
45976;BMP280;31696;42.668;23.322;2023-07-30T00:28:31;94525.00;;;20.86
45976;BMP280;31696;42.668;23.322;2023-07-30T00:30:31;94522.59;;;20.92
45976;BMP280;31696;42.668;23.322;2023-07-30T00:32:31;94520.16;;;20.81
45976;BMP280;31696;42.668;23.322;2023-07-30T00:34:32;94524.19;;;20.82
45976;BMP280;31696;42.668;23.322;2023-07-30T00:36:32;94510.44;;;20.85
45976;BMP280;31696;42.668;23.322;2023-07-30T00:38:33;94515.66;;;20.83
45976;BMP280;31696;42.668;23.322;2023-07-30T00:40:39;94512.84;;;20.79
45976;BMP280;31696;42.668;23.322;2023-07-30T00:42:39;94514.41;;;20.69
45976;BMP280;31696;42.668;23.322;2023-07-30T00:44:40;94513.13;;;20.70
45976;BMP280;31696;42.668;23.322;2023-07-30T00:46:40;94510.38;;;20.68
45976;BMP280;31696;42.668;23.322;2023-07-30T00:48:40;94510.75;;;20.60
45976;BMP280;31696;42.668;23.322;2023-07-30T00:50:41;94516.16;;;20.47
45976;BMP280;31696;42.668;23.322;2023-07-30T00:52:42;94533.75;;;20.42
45976;BMP280;31696;42.668;23.322;2023-07-30T00:54:42;94527.13;;;20.41
45976;BMP280;31696;42.668;23.322;2023-07-30T00:56:45;94519.28;;;20.43
45976;BMP280;31696;42.668;23.322;2023-07-30T00:58:47;94513.69;;;20.35
45976;BMP280;31696;42.668;23.322;2023-07-30T01:00:48;94512.66;;;20.42
45976;BMP280;31696;42.668;23.322;2023-07-30T01:02:50;94514.28;;;20.49
45976;BMP280;31696;42.668;23.322;2023-07-30T01:04:51;94513.69;;;20.51
45976;BMP280;31696;42.668;23.322;2023-07-30T01:06:52;94521.34;;;20.45
45976;BMP280;31696;42.668;23.322;2023-07-30T01:08:52;94526.25;;;20.52
45976;BMP280;31696;42.668;23.322;2023-07-30T01:10:52;94522.84;;;20.34
45976;BMP280;31696;42.668;23.322;2023-07-30T01:12:53;94512.50;;;20.38
45976;BMP280;31696;42.668;23.322;2023-07-30T01:14:54;94524.31;;;20.37
45976;BMP280;31696;42.668;23.322;2023-07-30T01:16:55;94523.06;;;20.38
45976;BMP280;31696;42.668;23.322;2023-07-30T01:18:56;94521.09;;;20.23
45976;BMP280;31696;42.668;23.322;2023-07-30T01:20:59;94520.16;;;20.16
45976;BMP280;31696;42.668;23.322;2023-07-30T01:22:59;94523.47;;;20.17
45976;BMP280;31696;42.668;23.322;2023-07-30T01:24:59;94527.47;;;20.18
45976;BMP280;31696;42.668;23.322;2023-07-30T01:27:02;94520.16;;;20.16
45976;BMP280;31696;42.668;23.322;2023-07-30T01:29:05;94527.47;;;20.18
45976;BMP280;31696;42.668;23.322;2023-07-30T01:31:07;94511.47;;;20.14
45976;BMP280;31696;42.668;23.322;2023-07-30T01:33:09;94520.16;;;20.16
45976;BMP280;31696;42.668;23.322;2023-07-30T01:35:10;94526.34;;;20.23
45976;BMP280;31696;42.668;23.322;2023-07-30T01:37:12;94517.53;;;20.16
45976;BMP280;31696;42.668;23.322;2023-07-30T01:39:13;94520.69;;;20.13
45976;BMP280;31696;42.668;23.322;2023-07-30T01:41:14;94517.28;;;20.10
45976;BMP280;31696;42.668;23.322;2023-07-30T01:43:15;94524.41;;;20.08
45976;BMP280;31696;42.668;23.322;2023-07-30T01:45:15;94531.13;;;20.11
45976;BMP280;31696;42.668;23.322;2023-07-30T01:47:15;94512.69;;;20.11
45976;BMP280;31696;42.668;23.322;2023-07-30T01:49:16;94524.94;;;20.04
45976;BMP280;31696;42.668;23.322;2023-07-30T01:51:16;94528.50;;;20.11
45976;BMP280;31696;42.668;23.322;2023-07-30T01:53:16;94522.34;;;20.06
45976;BMP280;31696;42.668;23.322;2023-07-30T01:55:17;94526.59;;;19.98
45976;BMP280;31696;42.668;23.322;2023-07-30T01:57:17;94525.91;;;19.97
45976;BMP280;31696;42.668;23.322;2023-07-30T01:59:18;94526.28;;;20.05
45976;BMP280;31696;42.668;23.322;2023-07-30T02:01:19;94528.81;;;20.03
45976;BMP280;31696;42.668;23.322;2023-07-30T02:03:19;94521.69;;;20.06
45976;BMP280;31696;42.668;23.322;2023-07-30T02:05:19;94525.75;;;20.09
45976;BMP280;31696;42.668;23.322;2023-07-30T02:07:20;94536.13;;;20.05
45976;BMP280;31696;42.668;23.322;2023-07-30T02:09:20;94531.97;;;20.00
45976;BMP280;31696;42.668;23.322;2023-07-30T02:11:21;94533.84;;;20.13
45976;BMP280;31696;42.668;23.322;2023-07-30T02:13:22;94527.91;;;20.12
45976;BMP280;31696;42.668;23.322;2023-07-30T02:15:22;94533.66;;;20.09
45976;BMP280;31696;42.668;23.322;2023-07-30T02:17:23;94525.75;;;20.09
45976;BMP280;31696;42.668;23.322;2023-07-30T02:19:23;94527.91;;;20.12
45976;BMP280;31696;42.668;23.322;2023-07-30T02:21:24;94534.50;;;19.98
45976;BMP280;31696;42.668;23.322;2023-07-30T02:23:24;94533.78;;;20.11
45976;BMP280;31696;42.668;23.322;2023-07-30T02:25:25;94540.56;;;20.16
45976;BMP280;31696;42.668;23.322;2023-07-30T02:27:25;94536.66;;;20.17
45976;BMP280;31696;42.668;23.322;2023-07-30T02:29:26;94536.16;;;20.20
45976;BMP280;31696;42.668;23.322;2023-07-30T02:31:27;94535.03;;;20.10
45976;BMP280;31696;42.668;23.322;2023-07-30T02:33:28;94543.44;;;20.06
45976;BMP280;31696;42.668;23.322;2023-07-30T02:35:29;94536.28;;;19.93
45976;BMP280;31696;42.668;23.322;2023-07-30T02:37:29;94543.34;;;19.89
45976;BMP280;31696;42.668;23.322;2023-07-30T02:39:29;94547.63;;;19.96
45976;BMP280;31696;42.668;23.322;2023-07-30T02:41:30;94537.25;;;20.00
45976;BMP280;31696;42.668;23.322;2023-07-30T02:43:30;94543.28;;;20.02
45976;BMP280;31696;42.668;23.322;2023-07-30T02:45:31;94546.16;;;19.93
45976;BMP280;31696;42.668;23.322;2023-07-30T02:47:31;94542.75;;;19.90
45976;BMP280;31696;42.668;23.322;2023-07-30T02:49:31;94555.47;;;19.80
45976;BMP280;31696;42.668;23.322;2023-07-30T02:51:32;94546.25;;;19.65
45976;BMP280;31696;42.668;23.322;2023-07-30T02:53:32;94547.78;;;19.71
45976;BMP280;31696;42.668;23.322;2023-07-30T02:55:33;94548.63;;;19.59
45976;BMP280;31696;42.668;23.322;2023-07-30T02:57:33;94554.91;;;19.52
45976;BMP280;31696;42.668;23.322;2023-07-30T02:59:33;94551.75;;;19.56
45976;BMP280;31696;42.668;23.322;2023-07-30T03:01:36;94549.31;;;19.60
45976;BMP280;31696;42.668;23.322;2023-07-30T03:03:36;94558.09;;;19.51
45976;BMP280;31696;42.668;23.322;2023-07-30T03:05:37;94556.16;;;19.51
45976;BMP280;31696;42.668;23.322;2023-07-30T03:07:37;94552.44;;;19.56
45976;BMP280;31696;42.668;23.322;2023-07-30T03:09:38;94553.91;;;19.59
45976;BMP280;31696;42.668;23.322;2023-07-30T03:11:38;94560.66;;;19.49
45976;BMP280;31696;42.668;23.322;2023-07-30T03:13:39;94558.78;;;19.51
45976;BMP280;31696;42.668;23.322;2023-07-30T03:15:39;94559.88;;;19.46
45976;BMP280;31696;42.668;23.322;2023-07-30T03:17:39;94563.03;;;19.43
45976;BMP280;31696;42.668;23.322;2023-07-30T03:19:40;94546.75;;;19.33
45976;BMP280;31696;42.668;23.322;2023-07-30T03:21:41;94553.34;;;19.47
45976;BMP280;31696;42.668;23.322;2023-07-30T03:23:41;94552.34;;;19.54
45976;BMP280;31696;42.668;23.322;2023-07-30T03:25:44;94554.59;;;19.46
45976;BMP280;31696;42.668;23.322;2023-07-30T03:27:44;94539.53;;;19.33
45976;BMP280;31696;42.668;23.322;2023-07-30T03:29:45;94565.56;;;19.27
45976;BMP280;31696;42.668;23.322;2023-07-30T03:31:45;94546.19;;;19.34
45976;BMP280;31696;42.668;23.322;2023-07-30T03:33:45;94557.84;;;19.31
45976;BMP280;31696;42.668;23.322;2023-07-30T03:35:46;94550.81;;;19.36
45976;BMP280;31696;42.668;23.322;2023-07-30T03:37:46;94550.69;;;19.18
45976;BMP280;31696;42.668;23.322;2023-07-30T03:39:47;94558.09;;;19.22
45976;BMP280;31696;42.668;23.322;2023-07-30T03:41:47;94549.69;;;19.25
45976;BMP280;31696;42.668;23.322;2023-07-30T03:43:48;94554.31;;;19.40
45976;BMP280;31696;42.668;23.322;2023-07-30T03:45:48;94573.56;;;19.43
45976;BMP280;31696;42.668;23.322;2023-07-30T03:47:49;94556.19;;;19.38
45976;BMP280;31696;42.668;23.322;2023-07-30T03:49:49;94556.72;;;19.34
45976;BMP280;31696;42.668;23.322;2023-07-30T03:51:50;94561.13;;;19.45
45976;BMP280;31696;42.668;23.322;2023-07-30T03:53:50;94553.53;;;19.51
45976;BMP280;31696;42.668;23.322;2023-07-30T03:55:51;94565.25;;;19.48
45976;BMP280;31696;42.668;23.322;2023-07-30T03:57:51;94567.81;;;19.33
45976;BMP280;31696;42.668;23.322;2023-07-30T03:59:51;94562.69;;;19.50
45976;BMP280;31696;42.668;23.322;2023-07-30T04:01:52;94567.59;;;19.42
45976;BMP280;31696;42.668;23.322;2023-07-30T04:03:52;94572.69;;;19.38
45976;BMP280;31696;42.668;23.322;2023-07-30T04:05:53;94572.88;;;19.42
45976;BMP280;31696;42.668;23.322;2023-07-30T04:07:53;94571.09;;;19.47
45976;BMP280;31696;42.668;23.322;2023-07-30T04:09:53;94564.31;;;19.57
45976;BMP280;31696;42.668;23.322;2023-07-30T04:11:54;94570.19;;;19.56
45976;BMP280;31696;42.668;23.322;2023-07-30T04:13:54;94568.16;;;19.54
45976;BMP280;31696;42.668;23.322;2023-07-30T04:15:54;94572.22;;;19.57
45976;BMP280;31696;42.668;23.322;2023-07-30T04:17:55;94563.84;;;19.61
45976;BMP280;31696;42.668;23.322;2023-07-30T04:19:55;94574.25;;;19.73
45976;BMP280;31696;42.668;23.322;2023-07-30T04:21:56;94580.59;;;19.67
45976;BMP280;31696;42.668;23.322;2023-07-30T04:23:56;94576.13;;;19.70
45976;BMP280;31696;42.668;23.322;2023-07-30T04:25:56;94568.69;;;19.66
45976;BMP280;31696;42.668;23.322;2023-07-30T04:27:57;94573.66;;;19.74
45976;BMP280;31696;42.668;23.322;2023-07-30T04:29:58;94575.59;;;19.74
45976;BMP280;31696;42.668;23.322;2023-07-30T04:31:58;94571.94;;;19.81
45976;BMP280;31696;42.668;23.322;2023-07-30T04:33:59;94577.22;;;19.81
45976;BMP280;31696;42.668;23.322;2023-07-30T04:35:59;94577.50;;;19.87
45976;BMP280;31696;42.668;23.322;2023-07-30T04:38:00;94574.78;;;19.85
45976;BMP280;31696;42.668;23.322;2023-07-30T04:40:01;94574.53;;;19.79
45976;BMP280;31696;42.668;23.322;2023-07-30T04:42:04;94566.19;;;19.84
45976;BMP280;31696;42.668;23.322;2023-07-30T04:44:04;94573.72;;;19.76
45976;BMP280;31696;42.668;23.322;2023-07-30T04:46:05;94579.97;;;19.83
45976;BMP280;31696;42.668;23.322;2023-07-30T04:48:05;94574.72;;;20.14
45976;BMP280;31696;42.668;23.322;2023-07-30T04:50:06;94573.91;;;20.25
45976;BMP280;31696;42.668;23.322;2023-07-30T04:52:07;94574.91;;;20.18
45976;BMP280;31696;42.668;23.322;2023-07-30T04:54:07;94584.09;;;20.17
45976;BMP280;31696;42.668;23.322;2023-07-30T04:56:08;94578.47;;;20.09
45976;BMP280;31696;42.668;23.322;2023-07-30T04:58:08;94577.66;;;20.20
45976;BMP280;31696;42.668;23.322;2023-07-30T05:00:10;94580.69;;;20.30
45976;BMP280;31696;42.668;23.322;2023-07-30T05:02:10;94581.31;;;20.44
45976;BMP280;31696;42.668;23.322;2023-07-30T05:04:11;94578.13;;;20.48
45976;BMP280;31696;42.668;23.322;2023-07-30T05:06:11;94588.97;;;20.38
45976;BMP280;31696;42.668;23.322;2023-07-30T05:08:12;94583.50;;;20.34
45976;BMP280;31696;42.668;23.322;2023-07-30T05:10:12;94577.41;;;20.45
45976;BMP280;31696;42.668;23.322;2023-07-30T05:12:12;94576.34;;;20.52
45976;BMP280;31696;42.668;23.322;2023-07-30T05:14:13;94583.06;;;20.86
45976;BMP280;31696;42.668;23.322;2023-07-30T05:16:14;94576.91;;;20.97
45976;BMP280;31696;42.668;23.322;2023-07-30T05:18:14;94583.88;;;21.06
45976;BMP280;31696;42.668;23.322;2023-07-30T05:20:14;94575.91;;;21.40
45976;BMP280;31696;42.668;23.322;2023-07-30T05:22:15;94570.38;;;21.34
45976;BMP280;31696;42.668;23.322;2023-07-30T05:24:15;94574.19;;;21.46
45976;BMP280;31696;42.668;23.322;2023-07-30T05:26:15;94569.72;;;21.51
45976;BMP280;31696;42.668;23.322;2023-07-30T05:28:16;94568.63;;;21.05
45976;BMP280;31696;42.668;23.322;2023-07-30T05:30:16;94574.19;;;21.46
45976;BMP280;31696;42.668;23.322;2023-07-30T05:32:17;94562.03;;;21.57
45976;BMP280;31696;42.668;23.322;2023-07-30T05:34:17;94562.78;;;21.42
45976;BMP280;31696;42.668;23.322;2023-07-30T05:36:17;94572.72;;;21.26
45976;BMP280;31696;42.668;23.322;2023-07-30T05:38:18;94571.97;;;21.41
45976;BMP280;31696;42.668;23.322;2023-07-30T05:40:18;94573.50;;;21.46
45976;BMP280;31696;42.668;23.322;2023-07-30T05:42:18;94580.59;;;21.94
45976;BMP280;31696;42.668;23.322;2023-07-30T05:44:19;94578.63;;;21.95
45976;BMP280;31696;42.668;23.322;2023-07-30T05:46:19;94579.81;;;22.09
45976;BMP280;31696;42.668;23.322;2023-07-30T05:48:20;94581.56;;;22.03
45976;BMP280;31696;42.668;23.322;2023-07-30T05:50:20;94578.09;;;21.98
45976;BMP280;31696;42.668;23.322;2023-07-30T05:52:20;94580.38;;;22.25
45976;BMP280;31696;42.668;23.322;2023-07-30T05:54:21;94580.38;;;22.45
45976;BMP280;31696;42.668;23.322;2023-07-30T05:56:21;94575.75;;;22.45
45976;BMP280;31696;42.668;23.322;2023-07-30T05:58:21;94586.00;;;23.16
45976;BMP280;31696;42.668;23.322;2023-07-30T06:00:22;94578.47;;;23.30
45976;BMP280;31696;42.668;23.322;2023-07-30T06:02:22;94586.88;;;23.91
45976;BMP280;31696;42.668;23.322;2023-07-30T06:04:23;94583.00;;;23.49
45976;BMP280;31696;42.668;23.322;2023-07-30T06:06:23;94598.16;;;23.68
45976;BMP280;31696;42.668;23.322;2023-07-30T06:08:27;94585.56;;;24.42
45976;BMP280;31696;42.668;23.322;2023-07-30T06:10:28;94596.09;;;25.21
45976;BMP280;31696;42.668;23.322;2023-07-30T06:12:28;94587.13;;;25.34
45976;BMP280;31696;42.668;23.322;2023-07-30T06:14:29;94592.72;;;25.79
45976;BMP280;31696;42.668;23.322;2023-07-30T06:16:29;94580.22;;;25.86
45976;BMP280;31696;42.668;23.322;2023-07-30T06:18:30;94588.47;;;26.36
45976;BMP280;31696;42.668;23.322;2023-07-30T06:20:30;94597.28;;;25.75
45976;BMP280;31696;42.668;23.322;2023-07-30T06:22:30;94589.13;;;26.36
45976;BMP280;31696;42.668;23.322;2023-07-30T06:24:31;94583.97;;;26.84
45976;BMP280;31696;42.668;23.322;2023-07-30T06:26:31;94585.91;;;27.27
45976;BMP280;31696;42.668;23.322;2023-07-30T06:28:31;94586.78;;;27.40
45976;BMP280;31696;42.668;23.322;2023-07-30T06:30:32;94585.91;;;27.27
45976;BMP280;31696;42.668;23.322;2023-07-30T06:32:32;94584.41;;;27.66
45976;BMP280;31696;42.668;23.322;2023-07-30T06:34:33;94589.53;;;28.04
45976;BMP280;31696;42.668;23.322;2023-07-30T06:36:33;94590.88;;;28.05
45976;BMP280;31696;42.668;23.322;2023-07-30T06:38:34;94578.19;;;28.05
45976;BMP280;31696;42.668;23.322;2023-07-30T06:40:34;94579.38;;;28.60
45976;BMP280;31696;42.668;23.322;2023-07-30T06:42:34;94575.84;;;29.31
45976;BMP280;31696;42.668;23.322;2023-07-30T06:44:35;94575.13;;;29.27
45976;BMP280;31696;42.668;23.322;2023-07-30T06:46:35;94578.03;;;29.85
45976;BMP280;31696;42.668;23.322;2023-07-30T06:48:36;94579.38;;;29.80
45976;BMP280;31696;42.668;23.322;2023-07-30T06:50:36;94565.41;;;30.20
45976;BMP280;31696;42.668;23.322;2023-07-30T06:52:36;94570.66;;;29.76
45976;BMP280;31696;42.668;23.322;2023-07-30T06:54:37;94565.41;;;30.32
45976;BMP280;31696;42.668;23.322;2023-07-30T06:56:37;94562.72;;;30.58
45976;BMP280;31696;42.668;23.322;2023-07-30T06:58:38;94554.69;;;30.00
45976;BMP280;31696;42.668;23.322;2023-07-30T07:00:38;94558.72;;;30.49
45976;BMP280;31696;42.668;23.322;2023-07-30T07:02:38;94565.41;;;30.32
45976;BMP280;31696;42.668;23.322;2023-07-30T07:04:39;94558.03;;;30.10
45976;BMP280;31696;42.668;23.322;2023-07-30T07:06:39;94554.69;;;30.04
45976;BMP280;31696;42.668;23.322;2023-07-30T07:08:40;94558.00;;;30.89
45976;BMP280;31696;42.668;23.322;2023-07-30T07:10:40;94559.13;;;31.60
45976;BMP280;31696;42.668;23.322;2023-07-30T07:12:41;94550.38;;;31.67
45976;BMP280;31696;42.668;23.322;2023-07-30T07:14:41;94559.34;;;31.02
45976;BMP280;31696;42.668;23.322;2023-07-30T07:16:43;94568.16;;;32.15
45976;BMP280;31696;42.668;23.322;2023-07-30T07:18:44;94548.56;;;32.35
45976;BMP280;31696;42.668;23.322;2023-07-30T07:20:44;94547.84;;;31.31
45976;BMP280;31696;42.668;23.322;2023-07-30T07:22:44;94539.06;;;31.45
45976;BMP280;31696;42.668;23.322;2023-07-30T07:24:45;94545.97;;;30.92
45976;BMP280;31696;42.668;23.322;2023-07-30T07:26:45;94533.28;;;30.24
45976;BMP280;31696;42.668;23.322;2023-07-30T07:28:46;94541.28;;;30.16
45976;BMP280;31696;42.668;23.322;2023-07-30T07:30:46;94535.94;;;30.60
45976;BMP280;31696;42.668;23.322;2023-07-30T07:32:48;94529.22;;;30.85
45976;BMP280;31696;42.668;23.322;2023-07-30T07:34:51;94521.06;;;31.21
45976;BMP280;31696;42.668;23.322;2023-07-30T07:36:51;94528.44;;;31.23
45976;BMP280;31696;42.668;23.322;2023-07-30T07:38:52;94522.50;;;30.92
45976;BMP280;31696;42.668;23.322;2023-07-30T07:40:52;94528.56;;;30.81
45976;BMP280;31696;42.668;23.322;2023-07-30T07:42:52;94508.31;;;31.18
45976;BMP280;31696;42.668;23.322;2023-07-30T07:44:54;94522.56;;;30.76
45976;BMP280;31696;42.668;23.322;2023-07-30T07:46:55;94513.63;;;31.34
45976;BMP280;31696;42.668;23.322;2023-07-30T07:48:55;94516.38;;;31.20
45976;BMP280;31696;42.668;23.322;2023-07-30T07:50:55;94507.78;;;30.77
45976;BMP280;31696;42.668;23.322;2023-07-30T07:52:56;94513.69;;;31.20
45976;BMP280;31696;42.668;23.322;2023-07-30T07:54:56;94516.94;;;31.46
45976;BMP280;31696;42.668;23.322;2023-07-30T07:56:57;94521.88;;;30.76
45976;BMP280;31696;42.668;23.322;2023-07-30T07:58:57;94505.09;;;30.87
45976;BMP280;31696;42.668;23.322;2023-07-30T08:00:58;94507.16;;;30.42
45976;BMP280;31696;42.668;23.322;2023-07-30T08:02:58;94509.19;;;30.44
45976;BMP280;31696;42.668;23.322;2023-07-30T08:04:59;94504.22;;;31.41
45976;BMP280;31696;42.668;23.322;2023-07-30T08:06:59;94499.38;;;31.65
45976;BMP280;31696;42.668;23.322;2023-07-30T08:09:03;94499.31;;;31.76
45976;BMP280;31696;42.668;23.322;2023-07-30T08:11:07;94497.31;;;31.76
45976;BMP280;31696;42.668;23.322;2023-07-30T08:13:07;94496.31;;;31.05
45976;BMP280;31696;42.668;23.322;2023-07-30T08:15:08;94497.75;;;30.74
45976;BMP280;31696;42.668;23.322;2023-07-30T08:17:08;94497.16;;;30.31
45976;BMP280;31696;42.668;23.322;2023-07-30T08:19:08;94487.72;;;30.70
45976;BMP280;31696;42.668;23.322;2023-07-30T08:21:09;94486.22;;;31.21
45976;BMP280;31696;42.668;23.322;2023-07-30T08:23:09;94496.66;;;31.74
45976;BMP280;31696;42.668;23.322;2023-07-30T08:25:10;94490.50;;;31.91
45976;BMP280;31696;42.668;23.322;2023-07-30T08:27:10;94504.44;;;32.10
45976;BMP280;31696;42.668;23.322;2023-07-30T08:29:11;94480.50;;;31.82
45976;BMP280;31696;42.668;23.322;2023-07-30T08:31:13;94480.22;;;32.18
45976;BMP280;31696;42.668;23.322;2023-07-30T08:33:13;94483.22;;;31.76
45976;BMP280;31696;42.668;23.322;2023-07-30T08:35:14;94478.97;;;32.05
45976;BMP280;31696;42.668;23.322;2023-07-30T08:37:14;94481.09;;;31.90
45976;BMP280;31696;42.668;23.322;2023-07-30T08:39:14;94473.66;;;32.01
45976;BMP280;31696;42.668;23.322;2023-07-30T08:41:15;94477.06;;;31.91
45976;BMP280;31696;42.668;23.322;2023-07-30T08:43:16;94474.59;;;32.44
45976;BMP280;31696;42.668;23.322;2023-07-30T08:45:16;94473.59;;;32.05
45976;BMP280;31696;42.668;23.322;2023-07-30T08:47:17;94462.81;;;32.13
45976;BMP280;31696;42.668;23.322;2023-07-30T08:49:17;94473.41;;;32.29
45976;BMP280;31696;42.668;23.322;2023-07-30T08:51:17;94458.97;;;31.90
45976;BMP280;31696;42.668;23.322;2023-07-30T08:53:19;94468.44;;;31.79
45976;BMP280;31696;42.668;23.322;2023-07-30T08:55:19;94458.78;;;32.10
45976;BMP280;31696;42.668;23.322;2023-07-30T08:57:20;94463.50;;;32.09
45976;BMP280;31696;42.668;23.322;2023-07-30T08:59:20;94462.00;;;32.28
45976;BMP280;31696;42.668;23.322;2023-07-30T09:01:21;94466.94;;;32.00
45976;BMP280;31696;42.668;23.322;2023-07-30T09:03:23;94446.16;;;31.96
45976;BMP280;31696;42.668;23.322;2023-07-30T09:05:25;94449.50;;;31.97
45976;BMP280;31696;42.668;23.322;2023-07-30T09:07:25;94450.09;;;32.05
45976;BMP280;31696;42.668;23.322;2023-07-30T09:09:25;94453.19;;;32.38
45976;BMP280;31696;42.668;23.322;2023-07-30T09:11:26;94455.31;;;32.23
45976;BMP280;31696;42.668;23.322;2023-07-30T09:13:29;94454.16;;;32.02
45976;BMP280;31696;42.668;23.322;2023-07-30T09:15:33;94446.94;;;31.81
45976;BMP280;31696;42.668;23.322;2023-07-30T09:17:33;94453.56;;;31.94
45976;BMP280;31696;42.668;23.322;2023-07-30T09:19:34;94450.56;;;31.47
45976;BMP280;31696;42.668;23.322;2023-07-30T09:21:35;94451.25;;;31.41
45976;BMP280;31696;42.668;23.322;2023-07-30T09:23:43;94446.47;;;31.58
45976;BMP280;31696;42.668;23.322;2023-07-30T09:25:44;94445.78;;;31.55
45976;BMP280;31696;42.668;23.322;2023-07-30T09:27:48;94457.06;;;31.72
45976;BMP280;31696;42.668;23.322;2023-07-30T09:29:52;94441.84;;;31.44
45976;BMP280;31696;42.668;23.322;2023-07-30T09:31:53;94431.19;;;31.28
45976;BMP280;31696;42.668;23.322;2023-07-30T09:33:55;94441.66;;;31.68
45976;BMP280;31696;42.668;23.322;2023-07-30T09:35:55;94437.56;;;31.80
45976;BMP280;31696;42.668;23.322;2023-07-30T09:38:00;94435.16;;;31.39
45976;BMP280;31696;42.668;23.322;2023-07-30T09:40:02;94425.81;;;31.32
45976;BMP280;31696;42.668;23.322;2023-07-30T09:42:02;94425.78;;;31.34
45976;BMP280;31696;42.668;23.322;2023-07-30T09:44:03;94414.91;;;31.62
45976;BMP280;31696;42.668;23.322;2023-07-30T09:46:04;94412.81;;;31.71
45976;BMP280;31696;42.668;23.322;2023-07-30T09:48:05;94424.31;;;31.53
45976;BMP280;31696;42.668;23.322;2023-07-30T09:50:06;94417.53;;;31.68
45976;BMP280;31696;42.668;23.322;2023-07-30T09:52:06;94412.34;;;31.44
45976;BMP280;31696;42.668;23.322;2023-07-30T09:54:08;94417.81;;;31.18
45976;BMP280;31696;42.668;23.322;2023-07-30T09:56:08;94409.16;;;31.10
45976;BMP280;31696;42.668;23.322;2023-07-30T09:58:09;94411.25;;;30.97
45976;BMP280;31696;42.668;23.322;2023-07-30T10:00:12;94414.66;;;30.86
45976;BMP280;31696;42.668;23.322;2023-07-30T10:02:13;94406.53;;;31.06
45976;BMP280;31696;42.668;23.322;2023-07-30T10:04:13;94405.16;;;31.09
45976;BMP280;31696;42.668;23.322;2023-07-30T10:06:15;94405.69;;;31.29
45976;BMP280;31696;42.668;23.322;2023-07-30T10:08:22;94404.47;;;31.08
45976;BMP280;31696;42.668;23.322;2023-07-30T10:10:24;94393.16;;;30.98
45976;BMP280;31696;42.668;23.322;2023-07-30T10:12:25;94386.81;;;31.51
45976;BMP280;31696;42.668;23.322;2023-07-30T10:14:27;94389.59;;;31.35
45976;BMP280;31696;42.668;23.322;2023-07-30T10:16:28;94388.34;;;31.22
45976;BMP280;31696;42.668;23.322;2023-07-30T10:18:38;94395.94;;;30.76
45976;BMP280;31696;42.668;23.322;2023-07-30T10:20:39;94383.09;;;31.00
45976;BMP280;31696;42.668;23.322;2023-07-30T10:22:40;94378.44;;;30.89
45976;BMP280;31696;42.668;23.322;2023-07-30T10:24:41;94379.25;;;30.57
45976;BMP280;31696;42.668;23.322;2023-07-30T10:26:46;94380.56;;;30.58
45976;BMP280;31696;42.668;23.322;2023-07-30T10:28:47;94381.72;;;31.03
45976;BMP280;31696;42.668;23.322;2023-07-30T10:30:54;94375.22;;;30.58
45976;BMP280;31696;42.668;23.322;2023-07-30T10:34:55;94366.44;;;30.82
45976;BMP280;31696;42.668;23.322;2023-07-30T10:36:56;94364.59;;;30.34
45976;BMP280;31696;42.668;23.322;2023-07-30T10:38:56;94361.81;;;30.64
45976;BMP280;31696;42.668;23.322;2023-07-30T10:41:00;94348.41;;;30.70
45976;BMP280;31696;42.668;23.322;2023-07-30T10:43:01;94355.75;;;30.72
45976;BMP280;31696;42.668;23.322;2023-07-30T10:45:02;94357.66;;;30.95
45976;BMP280;31696;42.668;23.322;2023-07-30T10:47:07;94356.41;;;30.72
45976;BMP280;31696;42.668;23.322;2023-07-30T10:49:07;94349.59;;;30.93
45976;BMP280;31696;42.668;23.322;2023-07-30T10:51:16;94339.06;;;30.57
45976;BMP280;31696;42.668;23.322;2023-07-30T10:53:17;94345.09;;;30.66
45976;BMP280;31696;42.668;23.322;2023-07-30T10:55:18;94341.63;;;30.77
45976;BMP280;31696;42.668;23.322;2023-07-30T10:57:19;94337.69;;;30.64
45976;BMP280;31696;42.668;23.322;2023-07-30T10:59:19;94341.09;;;30.46
45976;BMP280;31696;42.668;23.322;2023-07-30T11:01:20;94321.63;;;30.58
45976;BMP280;31696;42.668;23.322;2023-07-30T11:03:23;94334.94;;;30.80
45976;BMP280;31696;42.668;23.322;2023-07-30T11:05:24;94318.84;;;30.82
45976;BMP280;31696;42.668;23.322;2023-07-30T11:07:25;94328.25;;;30.77
45976;BMP280;31696;42.668;23.322;2023-07-30T11:09:26;94316.94;;;30.63
45976;BMP280;31696;42.668;23.322;2023-07-30T11:11:27;94320.31;;;30.53
45976;BMP280;31696;42.668;23.322;2023-07-30T11:13:27;94312.97;;;30.51
45976;BMP280;31696;42.668;23.322;2023-07-30T11:15:27;94307.56;;;30.63
45976;BMP280;31696;42.668;23.322;2023-07-30T11:17:28;94316.22;;;30.74
45976;BMP280;31696;42.668;23.322;2023-07-30T11:19:29;94300.94;;;30.50
45976;BMP280;31696;42.668;23.322;2023-07-30T11:21:30;94294.78;;;30.74
45976;BMP280;31696;42.668;23.322;2023-07-30T11:23:30;94287.47;;;30.63
45976;BMP280;31696;42.668;23.322;2023-07-30T11:25:30;94300.88;;;30.58
45976;BMP280;31696;42.668;23.322;2023-07-30T11:27:44;94293.38;;;30.87